Forecasts are only available for sites displaying the forecast symbol.

Some water levels are actually in metres AHD (Australian Height Datum), click individual sites for more details.

Scroll for more >

River gauges, storages, and weirs in the Murray–Darling Basin

Type Locationsort descending River Water level Flow Volume Release Water temp Salinity Rainfall
River Gauge Albury (Union Bridge) Murray 0.99 m 17/06/2019 17:30 Not measured Not measured Not measured 9.5°C 17/06/2019 17:30 42.0 μS/cm 17/06/2019 17:30 Not measured Full data
River Gauge Balranald Murrumbidgee 1.43 m 17/06/2019 15:45 1015 ML/Day 17/06/2019 15:45 Not measured Not measured 11.5°C 17/06/2019 15:45 160.7 μS/cm 17/06/2019 15:45 Not measured Full data
River Gauge Bandiana Kiewa 2.39 m 17/06/2019 16:45 2714 ML/Day 17/06/2019 16:45 Not measured Not measured 8.9°C 17/06/2019 16:45 26.8 μS/cm 17/06/2019 16:45 Not measured Full data
River Gauge Barmah Choke Murray 1.59 m 17/06/2019 16:45 3432 ML/Day 17/06/2019 16:45 Not measured Not measured Not measured Not measured Not measured Full data
River Gauge Biggara Murray 0.58 m 17/06/2019 17:30 812 ML/Day 17/06/2019 17:30 Not measured Not measured 6.2°C 17/06/2019 17:30 37.0 μS/cm 17/06/2019 17:30 0.2 mm 17/06/2019 9:00 Full data
River Gauge Bringenbrong Bridge Murray 1.46 m 17/06/2019 17:30 3480 ML/Day 17/06/2019 17:30 Not measured Not measured Not measured Not measured Not measured Full data
River Gauge Burtundy Darling 0.5 m 17/06/2019 17:15 1 ML/Day 17/06/2019 17:15 Not measured Not measured 13.8°C 17/06/2019 17:15 7.3 μS/cm 9/04/2019 15:15 Not measured Full data
River Gauge Colemans Mitta 2.15 m 17/06/2019 17:15 4408 ML/Day 17/06/2019 17:15 Not measured Not measured 10.2°C 17/06/2019 16:45 43.1 μS/cm 17/06/2019 16:45 Not measured Full data
River Gauge Colignan Murray 1.78 m 17/06/2019 16:45 5603 ML/Day 17/06/2019 16:45 Not measured Not measured 12.3°C 17/06/2019 16:45 92.9 μS/cm 17/06/2019 16:45 Not measured Full data
River Gauge Corowa Murray 1.2 m 17/06/2019 17:30 3873 ML/Day 17/06/2019 17:30 Not measured Not measured 10.4°C 17/06/2019 17:30 54.7 μS/cm 17/06/2019 17:30 Not measured Full data
Storage Dartmouth Dam Mitta 462.39 m 17/06/2019 17:15 Not measured 2492 GL 17/06/2019 17:15 Not measured Not measured Not measured Not measured Full data
River Gauge Doctors Point Murray 1.87 m 17/06/2019 17:30 3173 ML/Day 17/06/2019 17:30 Not measured Not measured 9.4°C 17/06/2019 17:30 42.2 μS/cm 17/06/2019 17:30 Not measured Full data
River Gauge Echuca Wharf Murray 86.19 m 17/06/2019 15:45 Not measured Not measured Not measured Not measured Not measured Not measured Full data
River Gauge Edward Escape Wakool -0.06 m 17/06/2019 16:45 5 ML/Day 4/06/2019 19:15 Not measured Not measured 12.2°C 17/06/2019 16:45 72.2 μS/cm 17/06/2019 16:45 Not measured Full data
River Gauge Edward River Offtake Murray 1.84 m 17/06/2019 17:00 830 ML/Day 17/06/2019 17:00 Not measured Not measured 11.6°C 17/06/2019 16:45 56.2 μS/cm 17/06/2019 16:45 Not measured Full data
Weirs Euston Weir Downstream Murray 43.01 m 17/06/2019 16:45 5907 ML/Day 17/06/2019 16:45 Not measured Not measured 11.8°C 17/06/2019 16:45 93.8 μS/cm 17/06/2019 16:45 Not measured Full data
Weirs Euston Weir Upstream Murray 47.35 m 17/06/2019 8:00 Not measured 33 GL 17/06/2019 7:45 Not measured Not measured Not measured 0.0 mm 21/02/2019 9:00 Full data
River Gauge Flow to South Australia Murray Not measured Not measured Not measured 4453.9 ML/d17/06/2019 7:45 Not measured Not measured Not measured Full data
River Gauge Frenchman Creek Murray 27.27 m 17/06/2019 7:45 Not measured Not measured 2758.0 ML/d17/06/2019 7:45 Not measured Not measured Not measured Full data
River Gauge Gulpa Creek Offtake Murray 2.22 m 17/06/2019 16:45 230 ML/Day 17/06/2019 16:45 Not measured Not measured Not measured Not measured Not measured Full data
River Gauge Hinnomunjie Mitta 1.15 m 17/06/2019 16:45 1877 ML/Day 17/06/2019 16:45 Not measured Not measured 4.7°C 17/06/2019 16:45 26.5 μS/cm 17/06/2019 16:45 0.0 mm 17/06/2019 9:00 Full data
Storage Hume Dam Murray 174.86 m 17/06/2019 17:30 Not measured 610 GL 17/06/2019 17:30 600.0 ML/d17/06/2019 8:00 Not measured Not measured 0.2 mm 17/06/2019 9:00 Full data
River Gauge Jingellic Murray 1.91 m 17/06/2019 16:45 6201 ML/Day 17/06/2019 16:45 Not measured Not measured 8.4°C 17/06/2019 16:45 31.7 μS/cm 17/06/2019 16:45 0.2 mm 17/06/2019 9:00 Full data
River Gauge Kerang Loddon 0.37 m 17/06/2019 16:45 206 ML/Day 17/06/2019 16:45 Not measured Not measured 11.5°C 17/06/2019 16:45 117.2 μS/cm 17/06/2019 16:45 Not measured Full data
River Gauge Lake Albert Murray 0.71 m 17/06/2019 5:45 Not measured 264 GL 17/06/2019 5:45 Not measured Not measured Not measured Not measured Full data
River Gauge Lake Alexandrina Murray 0.6 m 17/06/2019 5:45 Not measured 1518 GL 17/06/2019 5:45 Not measured Not measured 948.3 μS/cm 17/06/2019 16:45 Not measured Full data
Storage Lake Victoria Murray 23.24 m 17/06/2019 16:45 Not measured 269 GL 17/06/2019 16:45 Not measured 12.3°C 17/06/2019 16:45 147.7 μS/cm 17/06/2019 16:45 Not measured Full data
Weirs Lock 1 Downstream Murray 0.6 m 17/06/2019 16:45 Not measured Not measured 4642.3 ML/d17/06/2019 7:45 Not measured Not measured Not measured Full data
Weirs Lock 1 Upstream Murray 3.25 m 17/06/2019 16:45 Not measured Not measured Not measured 12.7°C 17/06/2019 16:45 256.2 μS/cm 17/06/2019 16:45 Not measured Full data
Weirs Lock 2 Downstream Murray 3.37 m 17/06/2019 15:45 Not measured Not measured Not measured Not measured Not measured Not measured Full data
Weirs Lock 2 Upstream Murray 6.16 m 17/06/2019 15:45 Not measured Not measured Not measured 12.6°C 17/06/2019 15:45 325.7 μS/cm 17/06/2019 15:45 Not measured Full data
Weirs Lock 3 Downstream Murray 6.35 m 17/06/2019 15:45 Not measured Not measured Not measured Not measured Not measured Not measured Full data
Weirs Lock 3 Upstream Murray 9.89 m 17/06/2019 15:45 Not measured Not measured Not measured Not measured Not measured Not measured Full data
Weirs Lock 4 Downstream Murray 10.34 m 17/06/2019 15:45 Not measured Not measured Not measured Not measured Not measured Not measured Full data
Weirs Lock 4 Upstream Murray 13.23 m 17/06/2019 15:45 Not measured Not measured Not measured Not measured Not measured Not measured Full data
Weirs Lock 5 Downstream Murray 13.32 m 17/06/2019 15:45 Not measured Not measured Not measured Not measured Not measured Not measured Full data
Weirs Lock 5 Upstream Murray 16.34 m 17/06/2019 15:45 Not measured Not measured Not measured 12.7°C 17/06/2019 15:45 187.6 μS/cm 17/06/2019 15:45 Not measured Full data
Weirs Lock 6 Downstream Murray 16.34 m 17/06/2019 15:45 Not measured Not measured Not measured Not measured Not measured Not measured Full data
Weirs Lock 6 Upstream Murray 19.23 m 17/06/2019 15:45 Not measured Not measured Not measured 12.4°C 17/06/2019 15:45 169.5 μS/cm 17/06/2019 15:45 Not measured Full data
Weirs Lock 7 Downstream Murray 19.97 m 17/06/2019 15:45 Not measured Not measured Not measured Not measured Not measured Not measured Full data
Weirs Lock 7 Upstream Murray 22.03 m 17/06/2019 15:45 Not measured Not measured Not measured 13.1°C 17/06/2019 15:45 99.3 μS/cm 17/06/2019 15:45 Not measured Full data
Weirs Lock 8 Upstream Murray 24.21 m 17/06/2019 15:45 Not measured Not measured Not measured 12.7°C 17/06/2019 15:45 100.1 μS/cm 17/06/2019 15:45 Not measured Full data
Weirs Lock 9 Downstream Murray 24.23 m 17/06/2019 15:45 Not measured Not measured Not measured Not measured Not measured Not measured Full data
Weirs Lock 9 Upstream Murray 27.31 m 17/06/2019 15:45 Not measured Not measured Not measured 13.2°C 17/06/2019 15:45 96.3 μS/cm 17/06/2019 15:45 Not measured Full data
River Gauge McCoy Bridge Goulburn 1.53 m 17/06/2019 16:45 1051 ML/Day 17/06/2019 16:45 Not measured Not measured 10.8°C 17/06/2019 16:45 77.0 μS/cm 17/06/2019 16:45 Not measured Full data
Storage Menindee Lakes Darling Not measured Not measured 16 GL 17/06/2019 7:45 Not measured Not measured Not measured Not measured Full data
Weirs Mildura Weir downstream Murray 30.93 m 17/06/2019 16:45 Not measured Not measured Not measured 12.2°C 17/06/2019 16:45 114.2 μS/cm 17/06/2019 16:45 Not measured Full data
River Gauge Morgan Downstream Murray Not measured Not measured Not measured 3100.8 ML/d17/06/2019 15:45 Not measured 307.4 μS/cm 17/06/2019 15:45 Not measured Full data
River Gauge Mulwala Canal Murray Not measured Not measured Not measured 0.0 ML/d17/06/2019 8:45 Not measured Not measured Not measured Full data
River Gauge Mundoo Barrage Murray 0.65 m 17/06/2019 7:45 Not measured Not measured Not measured Not measured Not measured Not measured Full data
River Gauge Murray Bridge Murray 0.57 m 17/06/2019 15:45 Not measured Not measured Not measured 12.9°C 17/06/2019 15:45 259.0 μS/cm 17/06/2019 15:45 Not measured Full data
River Gauge Peechelba Ovens 128.11 m 17/06/2019 16:45 3833 ML/Day 17/06/2019 16:45 Not measured Not measured 10.7°C 17/06/2019 16:45 41.0 μS/cm 17/06/2019 16:45 Not measured Full data
River Gauge Pinegrove Murray 1.27 m 17/06/2019 17:30 426 ML/Day 17/06/2019 17:30 Not measured Not measured 7.2°C 17/06/2019 17:30 71.7 μS/cm 17/06/2019 17:30 0.2 mm 17/06/2019 9:00 Full data
River Gauge Redcliffs Murray Not measured Not measured Not measured Not measured Not measured 126.4 μS/cm 17/06/2019 15:45 Not measured Full data
River Gauge Rochester Campaspe 1.7 m 17/06/2019 16:45 74 ML/Day 17/06/2019 16:45 Not measured Not measured 11.3°C 17/06/2019 16:45 601.0 μS/cm 17/06/2019 16:45 0.2 mm 17/06/2019 9:00 Full data
River Gauge Rufus River Murray 20.33 m 17/06/2019 7:45 Not measured Not measured 1831.8 ML/d17/06/2019 7:45 Not measured 121.9 μS/cm 17/06/2019 15:45 Not measured Full data
Weirs Steven's Weir Downstream Wakool 1.05 m 17/06/2019 16:45 759 ML/Day 17/06/2019 16:45 Not measured Not measured 11.4°C 17/06/2019 16:45 58.7 μS/cm 17/06/2019 16:45 Not measured Full data
Weirs Steven's Weir Upstream Wakool 4.14 m 17/06/2019 17:00 Not measured Not measured Not measured Not measured Not measured Not measured Full data
River Gauge Stoney Crossing Murray 1.39 m 17/06/2019 16:45 413 ML/Day 17/06/2019 16:45 Not measured 409.8 ML/d17/06/2019 7:45 12.2°C 17/06/2019 16:45 193.7 μS/cm 17/06/2019 16:45 Not measured Full data
River Gauge Swan Hill Murray 0.96 m 17/06/2019 16:45 4297 ML/Day 17/06/2019 16:45 Not measured Not measured 11.4°C 17/06/2019 16:45 78.3 μS/cm 17/06/2019 16:45 Not measured Full data
River Gauge Tallandoon Mitta 2.6 m 17/06/2019 16:45 4788 ML/Day 17/06/2019 16:45 Not measured Not measured 10.2°C 17/06/2019 16:45 36.3 μS/cm 17/06/2019 16:45 Not measured Full data
River Gauge Tauwitchere Barrage Murray 0.67 m 17/06/2019 16:45 Not measured Not measured Not measured Not measured Not measured Not measured Full data
River Gauge Tocumwal Murray 1.54 m 17/06/2019 16:45 5311 ML/Day 17/06/2019 16:45 Not measured Not measured 11.4°C 17/06/2019 16:45 47.7 μS/cm 17/06/2019 16:45 Not measured Full data
River Gauge Torrumbarry Headworks Murray 84.03 m 17/06/2019 16:45 Not measured Not measured 484.6 ML/d17/06/2019 16:45 Not measured Not measured Not measured Full data
Weirs Torrumbarry Weir Downstream Murray 1.55 m 17/06/2019 16:45 3984 ML/Day 17/06/2019 16:45 Not measured Not measured 10.9°C 17/06/2019 16:45 77.6 μS/cm 17/06/2019 16:45 Not measured Full data
Weirs Torrumbarry Weir Upstream Murray 85.75 m 17/06/2019 16:30 Not measured 34 GL 17/06/2019 8:45 Not measured 10.5°C 17/06/2019 8:45 77.9 μS/cm 17/06/2019 8:45 0.0 mm 17/06/2019 9:00 Full data
River Gauge Wakool Canal Wakool -0.06 m 17/06/2019 16:45 Not measured Not measured 0.0 ML/d17/06/2019 8:45 Not measured Not measured Not measured Full data
River Gauge Wakool Junction Murray 2.34 m 17/06/2019 16:45 5276 ML/Day 17/06/2019 16:45 Not measured Not measured 11.5°C 17/06/2019 16:45 82.1 μS/cm 17/06/2019 16:45 Not measured Full data
River Gauge Weir 32 Upstream Darling 0.98 m 17/06/2019 16:45 1 ML/Day 17/06/2019 16:45 Not measured Not measured 14.1°C 17/06/2019 16:45 1298.0 μS/cm 17/06/2019 16:45 Not measured Full data
Weirs Wentworth Weir Murray 27.56 m 17/06/2019 16:45 Not measured Not measured 5308.8 ML/d17/06/2019 8:45 Not measured 95.0 μS/cm 17/06/2019 7:45 0.0 mm 31/01/2019 9:00 Full data
River Gauge Wilcania Darling 0.67 m 17/06/2019 16:45 443 ML/Day 17/06/2019 16:45 Not measured Not measured 13.9°C 17/06/2019 16:45 2940.7 μS/cm 17/06/2019 16:45 Not measured Full data
River Gauge Yarrawonga Main Channel Murray 122.92 m 17/06/2019 2:45 Not measured Not measured 80.0 ML/d17/06/2019 8:45 Not measured Not measured Not measured Full data
Weirs Yarrawonga Weir Downstream Murray 1.16 m 17/06/2019 17:30 6556 ML/Day 17/06/2019 17:30 Not measured Not measured 11.6°C 17/06/2019 17:30 48.6 μS/cm 17/06/2019 17:30 Not measured Full data
Weirs Yarrawonga Weir Upstream Murray 124.76 m 17/06/2019 17:00 Not measured Not measured Not measured Not measured Not measured 0.2 mm 17/06/2019 9:00 Full data